Fruitland, Washington
Current Conditions -  °F | °C
As of 8:53 PM on Sunday 19 Oct 2014 (Local Time) from KDEW Reporting Station
Clear Clear  
Wind Chill: 56°   Ceiling: Unl
Heat Index: 56°   Visibility: 10mi
Dew Point: 48°   Wind: 6mph
Humidity: 75%   Direction: 20°NNE
Pressure: 29.8"   Gusts: NA
Location:  48.07°N, 118.2°W
Report Text: KDEW 200353Z AUTO 02005KT 10SM CLR 13/09 A2980 RMK AO2 SLP092 T01330089
Loading
Personal Weather Stations






























Interactive Weather Map
Tropical Storm Tracking
New forecast layout! Learn more

10-Day Weather Forecast

Advertisements
Track Severe Weather on mobile